FMMI Airport Information

Runway Information
Runway 11 Length 10171 ft width 148 ft
Elevation 4197 ft Threshold 0 ft Heading 99
Runway 29 Length 10171 ft Width 148 ft
Elevation 4117 ft Threshold 0 ft Heading 279
Airport Frequencies
Type TWR Name TWR Frequency 120.1 MHZ
Airport Navaids
Type VOR-DME Name Ivato Frequency 114500 KHZ
Airport Weather Information & NOTAM
ADDS - METARS form results

(0757 UTC 22 January 2019)
Data provider http://aviationweather.gov/metar/data/
 
METAR text: FMMI 220730Z 03015KT 9999 SCT011 BKN017 23/18 Q1018 TEMPO DZ
Conditions at: FMMI (ANTANANARIVO/IVA, KM) observed 0730 UTC 22 January 2019
Temperature: 23.0°C (73°F)
Dewpoint: 18.0°C (64°F) [RH = 73%]
Pressure (altimeter): 30.06 inches Hg (1018.0 mb)
Winds: from the NNE (30 degrees) at 17 MPH (15 knots; 7.7 m/s)
Visibility: 6 or more miles (10+ km)
Ceiling: 1700 feet AGL
Clouds: scattered clouds at 1100 feet AGL
broken clouds at 1700 feet AGL
Weather: no significant weather observed at this time

METAR text: FMMI 220700Z 02014KT 350V050 9999 -DZ SCT010 BKN017 22/19 Q1018 TEMPO DZ
Conditions at: FMMI (ANTANANARIVO/IVA, KM) observed 0700 UTC 22 January 2019
Temperature: 22.0°C (72°F)
Dewpoint: 19.0°C (66°F) [RH = 83%]
Pressure (altimeter): 30.06 inches Hg (1018.0 mb)
Winds: from the NNE (20 degrees) at 16 MPH (14 knots; 7.2 m/s)
Visibility: 6 or more miles (10+ km)
Ceiling: 1700 feet AGL
Clouds: scattered clouds at 1000 feet AGL
broken clouds at 1700 feet AGL
Weather: -DZ  (light drizzle)

Forecast for: FMMI (ANTANANARIVO/IVA, KM)
Text: TAF FMMI 220500Z 2206/2312 36010KT 9999 SCT010 BKN017
Forecast period: 0600 to 2200 UTC 22 January 2019
Forecast type: FROM: standard forecast or significant change
Winds: from the N (360 degrees) at 12 MPH (10 knots; 5.1 m/s)
Visibility: 6 or more miles 10+ km)
Ceiling: 1700 feet AGL
Clouds: scattered clouds at 1000 feet AGL
broken clouds at 1700 feet AGL
Weather: no significant weather forecast for this period
Text: PROB40
Forecast period: 0600 UTC 22 January 2019 to 0900 UTC 23 January 2019
Forecast type: TEMPORARY: The following changes expected for less than half the time period
Visibility: 2.49 miles (4.01 km)
Ceiling: unknown
Clouds: missing
Weather: DZ RA  (moderate drizzle, moderate rain)
Text: TEMPO 2206/2309 4000 DZRA
Forecast period: 2200 UTC 22 January 2019 to 1200 UTC 23 January 2019
Forecast type: BECOMING: Conditions expected to become as follows by 0000 UTC 23 January 2019
Winds: from the WNW (300 degrees) at 12 MPH (10 knots; 5.1 m/s)
Visibility: 6 or more miles 10+ km)
Ceiling: 1700 feet AGL
Clouds: scattered clouds at 1000 feet AGL
broken clouds at 1700 feet AGL
Weather: no significant weather forecast for this period